Time;durP1;ratioP1;P1;durP2;ratioP2;P2;SDS_P1;SDS_P2;PMS_P1;PMS_P2;Temp;Humidity;BMP_temperature;BMP_pressure;BME280_temperature;BME280_humidity;BME280_pressure;Samples;Min_cycle;Max_cycle;Signal;HPM_P1;HPM_P2
2021/08/20 00:01:26;;;;;;;;;;;;;;;;;;5133130;28;19931;-74
2021/08/20 00:03:52;;;;;;;;;;;;;;;;;;5133650;28;19930;-74
2021/08/20 00:06:18;;;;;;;;;;;;;;;;;;5133093;28;19931;-74
2021/08/20 00:08:45;;;;;;;;;;;;;;;;;;5133480;28;19939;-74
2021/08/20 00:11:11;;;;;;;;;;;;;;;;;;5135146;27;19930;-74
2021/08/20 00:13:38;;;;;;;;;;;;;;;;;;5137049;27;20376;-74
2021/08/20 00:16:04;;;;;;;;;;;;;;;;;;5137219;27;19929;-74
2021/08/20 00:18:30;;;;;;;;;;;;;;;;;;5136981;27;19970;-74
2021/08/20 00:20:57;;;;;;;;;;;;;;;;;;5137031;27;20173;-74
2021/08/20 00:23:23;;;;;;;;;;;;;;;;;;5136839;27;19930;-74
2021/08/20 00:25:49;;;;;;;;;;;;;;;;;;5137368;27;19924;-74
2021/08/20 00:28:18;;;;;;;;;;;;;;;;;;5136998;27;19930;-74
2021/08/20 00:30:44;;;;;;;;;;;;;;;;;;5136905;27;19923;-74
2021/08/20 00:33:11;;;;;;;;;;;;;;;;;;5137216;27;19923;-74
2021/08/20 00:35:37;;;;;;;;;;;;;;;;;;5136606;27;19928;-74
2021/08/20 00:38:03;;;;;;;;;;;;;;;;;;5137077;27;19923;-74
2021/08/20 00:40:30;;;;;;;;;;;;;;;;;;5136451;27;19924;-74
2021/08/20 00:42:56;;;;;;;;;;;;;;;;;;5137075;27;19924;-74
2021/08/20 00:45:22;;;;;;;;;;;;;;;;;;5136464;27;19934;-74
2021/08/20 00:47:48;;;;;;;;;;;;;;;;;;5136825;27;19928;-73
2021/08/20 00:50:15;;;;;;;;;;;;;;;;;;5136502;27;19923;-74
2021/08/20 00:52:41;;;;;;;;;;;;;;;;;;5136616;27;19923;-74
2021/08/20 00:55:08;;;;;;;;;;;;;;;;;;5136399;27;19931;-73
2021/08/20 00:57:35;;;;;;;;;;;;;;;;;;5136447;27;19976;-74
2021/08/20 01:00:01;;;;;;;;;;;;;;;;;;5136397;27;19924;-74
2021/08/20 01:02:27;;;;;;;;;;;;;;;;;;5136339;27;19923;-74
2021/08/20 01:04:54;;;;;;;;;;;;;;;;;;5136388;27;19924;-73
2021/08/20 01:07:20;;;;;;;;;;;;;;;;;;5136301;27;19924;-74
2021/08/20 01:09:46;;;;;;;;;;;;;;;;;;5136237;27;19930;-74
2021/08/20 01:12:12;;;;;;;;;;;;;;;;;;5136502;27;19946;-74
2021/08/20 01:14:39;;;;;;;;;;;;;;;;;;5135910;27;19927;-74
2021/08/20 01:17:05;;;;;;;;;;;;;;;;;;5136235;27;19931;-73
2021/08/20 01:19:31;;;;;;;;;;;;;;;;;;5135554;27;19924;-73
2021/08/20 01:21:58;;;;;;;;;;;;;;;;;;5135686;27;19923;-74
2021/08/20 01:24:24;;;;;;;;;;;;;;;;;;5135644;27;19924;-73
2021/08/20 01:26:51;;;;;;;;;;;;;;;;;;5136161;27;19930;-74
2021/08/20 01:29:17;;;;;;;;;;;;;;;;;;5135862;27;19923;-74
2021/08/20 01:31:44;;;;;;;;;;;;;;;;;;5136111;27;20335;-74
2021/08/20 01:34:10;;;;;;;;;;;;;;;;;;5136017;27;19924;-75
2021/08/20 01:36:36;;;;;;;;;;;;;;;;;;5135391;27;19924;-74
2021/08/20 01:39:02;;;;;;;;;;;;;;;;;;5135974;27;19923;-74
2021/08/20 01:41:29;;;;;;;;;;;;;;;;;;5135438;27;20397;-74
2021/08/20 01:43:55;;;;;;;;;;;;;;;;;;5135897;27;19923;-74
2021/08/20 01:46:21;;;;;;;;;;;;;;;;;;5135326;27;19923;-74
2021/08/20 01:48:48;;;;;;;;;;;;;;;;;;5135641;27;19924;-74
2021/08/20 01:51:14;;;;;;;;;;;;;;;;;;5135489;27;20399;-74
2021/08/20 01:53:40;;;;;;;;;;;;;;;;;;5135523;27;19923;-74
2021/08/20 01:56:07;;;;;;;;;;;;;;;;;;5135294;27;19924;-74
2021/08/20 01:58:33;;;;;;;;;;;;;;;;;;5134890;27;19975;-74
2021/08/20 02:00:59;;;;;;;;;;;;;;;;;;5135580;27;19928;-74
2021/08/20 02:03:25;;;;;;;;;;;;;;;;;;5135001;27;19923;-74
2021/08/20 02:05:52;;;;;;;;;;;;;;;;;;5135423;27;19923;-74
2021/08/20 02:08:18;;;;;;;;;;;;;;;;;;5134922;27;19931;-74
2021/08/20 02:10:44;;;;;;;;;;;;;;;;;;5135325;27;19946;-74
2021/08/20 02:13:11;;;;;;;;;;;;;;;;;;5135039;27;19923;-74
2021/08/20 02:15:37;;;;;;;;;;;;;;;;;;5135032;27;19924;-74
2021/08/20 02:18:03;;;;;;;;;;;;;;;;;;5134774;27;19923;-74
2021/08/20 02:20:30;;;;;;;;;;;;;;;;;;5134599;27;19927;-74
2021/08/20 02:22:56;;;;;;;;;;;;;;;;;;5134722;27;19923;-73
2021/08/20 02:25:22;;;;;;;;;;;;;;;;;;5134834;27;19927;-74
2021/08/20 02:27:48;;;;;;;;;;;;;;;;;;5134763;27;19924;-74
2021/08/20 02:30:15;;;;;;;;;;;;;;;;;;5134972;27;19923;-74
2021/08/20 02:32:41;;;;;;;;;;;;;;;;;;5134222;27;19930;-73
2021/08/20 02:35:07;;;;;;;;;;;;;;;;;;5134798;27;19931;-74
2021/08/20 02:37:34;;;;;;;;;;;;;;;;;;5134252;27;19931;-74
2021/08/20 02:40:00;;;;;;;;;;;;;;;;;;5134760;27;19927;-73
2021/08/20 02:42:26;;;;;;;;;;;;;;;;;;5134218;27;19930;-73
2021/08/20 02:44:52;;;;;;;;;;;;;;;;;;5134539;27;19947;-73
2021/08/20 02:47:19;;;;;;;;;;;;;;;;;;5134131;27;19924;-74
2021/08/20 02:49:45;;;;;;;;;;;;;;;;;;5134592;27;19924;-74
2021/08/20 02:52:11;;;;;;;;;;;;;;;;;;5134540;27;19923;-74
2021/08/20 02:54:38;;;;;;;;;;;;;;;;;;5133975;27;20397;-74
2021/08/20 02:57:04;;;;;;;;;;;;;;;;;;5134195;27;19923;-74
2021/08/20 02:59:30;;;;;;;;;;;;;;;;;;5133875;27;19928;-74
2021/08/20 03:01:58;;;;;;;;;;;;;;;;;;5134397;27;19924;-73
2021/08/20 03:04:24;;;;;;;;;;;;;;;;;;5133799;27;19978;-73
2021/08/20 03:06:50;;;;;;;;;;;;;;;;;;5134273;27;19927;-73
2021/08/20 03:09:18;;;;;;;;;;;;;;;;;;5133819;27;19923;-74
2021/08/20 03:11:44;;;;;;;;;;;;;;;;;;5134165;27;19923;-73
2021/08/20 03:14:11;;;;;;;;;;;;;;;;;;5133902;27;19923;-73
2021/08/20 03:16:37;;;;;;;;;;;;;;;;;;5133919;27;19927;-74
2021/08/20 03:19:03;;;;;;;;;;;;;;;;;;5133878;27;19927;-73
2021/08/20 03:21:30;;;;;;;;;;;;;;;;;;5133357;27;20382;-74
2021/08/20 03:23:56;;;;;;;;;;;;;;;;;;5133620;27;20301;-73
2021/08/20 03:26:22;;;;;;;;;;;;;;;;;;5133450;27;19934;-74
2021/08/20 03:28:49;;;;;;;;;;;;;;;;;;5133612;27;20396;-74
2021/08/20 03:31:15;;;;;;;;;;;;;;;;;;5133927;27;19924;-74
2021/08/20 03:33:41;;;;;;;;;;;;;;;;;;5133295;27;20381;-74
2021/08/20 03:36:07;;;;;;;;;;;;;;;;;;5133872;27;19923;-74
2021/08/20 03:38:34;;;;;;;;;;;;;;;;;;5133243;27;19931;-74
2021/08/20 03:41:00;;;;;;;;;;;;;;;;;;5133441;27;19935;-74
2021/08/20 03:43:26;;;;;;;;;;;;;;;;;;5133204;28;19930;-74
2021/08/20 03:45:52;;;;;;;;;;;;;;;;;;5133438;27;19923;-73
2021/08/20 03:48:19;;;;;;;;;;;;;;;;;;5133140;28;19923;-74
2021/08/20 03:50:45;;;;;;;;;;;;;;;;;;5133757;28;19931;-74
2021/08/20 03:53:11;;;;;;;;;;;;;;;;;;5133305;28;19924;-74
2021/08/20 03:55:38;;;;;;;;;;;;;;;;;;5133418;28;19927;-74
2021/08/20 03:58:04;;;;;;;;;;;;;;;;;;5133249;28;19930;-74
2021/08/20 04:00:30;;;;;;;;;;;;;;;;;;5133204;28;19950;-74
2021/08/20 04:02:56;;;;;;;;;;;;;;;;;;5133294;28;19923;-74
2021/08/20 04:05:23;;;;;;;;;;;;;;;;;;5133083;28;20389;-74
2021/08/20 04:07:49;;;;;;;;;;;;;;;;;;5133540;28;19923;-74
2021/08/20 04:10:15;;;;;;;;;;;;;;;;;;5133136;28;19924;-74
2021/08/20 04:12:41;;;;;;;;;;;;;;;;;;5133098;28;19923;-74
2021/08/20 04:15:08;;;;;;;;;;;;;;;;;;5133205;28;19923;-74
2021/08/20 04:17:34;;;;;;;;;;;;;;;;;;5133150;28;19931;-74
2021/08/20 04:20:00;;;;;;;;;;;;;;;;;;5132768;28;19934;-74
2021/08/20 04:22:27;;;;;;;;;;;;;;;;;;5133167;28;19923;-74
2021/08/20 04:24:53;;;;;;;;;;;;;;;;;;5133114;28;19930;-74
2021/08/20 04:27:19;;;;;;;;;;;;;;;;;;5132981;28;19927;-74
2021/08/20 04:29:45;;;;;;;;;;;;;;;;;;5133044;28;19923;-74
2021/08/20 04:32:12;;;;;;;;;;;;;;;;;;5133623;28;20262;-74
2021/08/20 04:34:38;;;;;;;;;;;;;;;;;;5132785;28;19934;-74
2021/08/20 04:37:04;;;;;;;;;;;;;;;;;;5133092;28;20289;-74
2021/08/20 04:39:31;;;;;;;;;;;;;;;;;;5132944;28;19928;-74
2021/08/20 04:41:57;;;;;;;;;;;;;;;;;;5132984;28;20382;-74
2021/08/20 04:44:23;;;;;;;;;;;;;;;;;;5132946;28;19928;-74
2021/08/20 04:46:49;;;;;;;;;;;;;;;;;;5132798;28;19923;-74
2021/08/20 04:49:16;;;;;;;;;;;;;;;;;;5133094;28;19927;-73
2021/08/20 04:51:42;;;;;;;;;;;;;;;;;;5132573;28;19924;-73
2021/08/20 04:54:08;;;;;;;;;;;;;;;;;;5134124;28;20309;-72
2021/08/20 04:56:34;;;;;;;;;;;;;;;;;;5132469;27;19930;-73
2021/08/20 04:59:02;;;;;;;;;;;;;;;;;;5136016;27;19928;-73
2021/08/20 05:01:28;;;;;;;;;;;;;;;;;;5136344;27;19927;-73
2021/08/20 05:03:55;;;;;;;;;;;;;;;;;;5136496;27;19923;-73
2021/08/20 05:06:21;;;;;;;;;;;;;;;;;;5136047;27;20282;-73
2021/08/20 05:08:47;;;;;;;;;;;;;;;;;;5136425;27;19923;-73
2021/08/20 05:11:13;;;;;;;;;;;;;;;;;;5136058;27;19923;-73
2021/08/20 05:13:40;;;;;;;;;;;;;;;;;;5136246;27;19930;-73
2021/08/20 05:16:07;;;;;;;;;;;;;;;;;;5136055;27;19949;-73
2021/08/20 05:18:33;;;;;;;;;;;;;;;;;;5135792;27;19976;-73
2021/08/20 05:20:59;;;;;;;;;;;;;;;;;;5135816;27;19931;-73
2021/08/20 05:23:25;;;;;;;;;;;;;;;;;;5135748;27;19923;-73
2021/08/20 05:25:52;;;;;;;;;;;;;;;;;;5136267;27;19923;-73
2021/08/20 05:28:18;;;;;;;;;;;;;;;;;;5135566;27;19930;-73
2021/08/20 05:30:45;;;;;;;;;;;;;;;;;;5136166;27;19924;-73
2021/08/20 05:33:12;;;;;;;;;;;;;;;;;;5136001;27;20463;-73
2021/08/20 05:35:40;;;;;;;;;;;;;;;;;;5135788;27;19928;-73
2021/08/20 05:38:06;;;;;;;;;;;;;;;;;;5135685;27;19924;-73
2021/08/20 05:40:32;;;;;;;;;;;;;;;;;;5135822;27;19997;-73
2021/08/20 05:42:58;;;;;;;;;;;;;;;;;;5135533;27;19923;-75
2021/08/20 05:45:25;;;;;;;;;;;;;;;;;;5135479;27;19923;-75
2021/08/20 05:47:51;;;;;;;;;;;;;;;;;;5135559;27;19928;-75
2021/08/20 05:50:17;;;;;;;;;;;;;;;;;;5135608;27;19946;-75
2021/08/20 05:52:44;;;;;;;;;;;;;;;;;;5135487;27;19933;-75
2021/08/20 05:55:11;;;;;;;;;;;;;;;;;;5135574;27;19930;-75
2021/08/20 05:57:38;;;;;;;;;;;;;;;;;;5135322;27;20396;-75
2021/08/20 06:00:04;;;;;;;;;;;;;;;;;;5135548;27;19924;-75
2021/08/20 06:02:30;;;;;;;;;;;;;;;;;;5135022;27;19924;-75
2021/08/20 06:04:56;;;;;;;;;;;;;;;;;;5135480;27;19923;-73
2021/08/20 06:07:23;;;;;;;;;;;;;;;;;;5134865;27;19935;-73
2021/08/20 06:09:49;;;;;;;;;;;;;;;;;;5134856;27;19924;-74
2021/08/20 06:12:15;;;;;;;;;;;;;;;;;;5135037;27;20005;-74
2021/08/20 06:14:42;;;;;;;;;;;;;;;;;;5135005;27;19927;-74
2021/08/20 06:17:08;;;;;;;;;;;;;;;;;;5134903;27;19924;-74
2021/08/20 06:19:34;;;;;;;;;;;;;;;;;;5134583;27;19924;-73
2021/08/20 06:22:00;;;;;;;;;;;;;;;;;;5134838;27;19930;-74
2021/08/20 06:24:27;;;;;;;;;;;;;;;;;;5134928;27;20289;-74
2021/08/20 06:26:53;;;;;;;;;;;;;;;;;;5134959;27;19924;-73
2021/08/20 06:29:20;;;;;;;;;;;;;;;;;;5134489;27;20286;-74
2021/08/20 06:31:46;;;;;;;;;;;;;;;;;;5134567;27;19984;-74
2021/08/20 06:34:13;;;;;;;;;;;;;;;;;;5134577;27;20287;-73
2021/08/20 06:36:39;;;;;;;;;;;;;;;;;;5134633;27;19931;-74
2021/08/20 06:39:05;;;;;;;;;;;;;;;;;;5134347;27;19923;-74
2021/08/20 06:41:32;;;;;;;;;;;;;;;;;;5134484;27;19933;-74
2021/08/20 06:43:58;;;;;;;;;;;;;;;;;;5134692;27;20289;-74
2021/08/20 06:46:24;;;;;;;;;;;;;;;;;;5134374;27;19930;-74
2021/08/20 06:48:50;;;;;;;;;;;;;;;;;;5134260;27;20399;-73
2021/08/20 06:51:17;;;;;;;;;;;;;;;;;;5134591;27;19923;-73
2021/08/20 06:53:43;;;;;;;;;;;;;;;;;;5134193;27;20309;-74
2021/08/20 06:56:09;;;;;;;;;;;;;;;;;;5134438;27;19931;-73
2021/08/20 06:58:35;;;;;;;;;;;;;;;;;;5134134;27;19924;-73
2021/08/20 07:01:02;;;;;;;;;;;;;;;;;;5134016;27;19927;-73
2021/08/20 07:03:28;;;;;;;;;;;;;;;;;;5134126;27;19946;-73
2021/08/20 07:05:54;;;;;;;;;;;;;;;;;;5134050;27;19930;-74
2021/08/20 07:08:21;;;;;;;;;;;;;;;;;;5133941;27;19923;-74
2021/08/20 07:10:47;;;;;;;;;;;;;;;;;;5134188;27;19924;-73
2021/08/20 07:13:13;;;;;;;;;;;;;;;;;;5133915;27;20309;-74
2021/08/20 07:15:40;;;;;;;;;;;;;;;;;;5133837;27;19924;-73
2021/08/20 07:18:06;;;;;;;;;;;;;;;;;;5133787;27;19924;-73
2021/08/20 07:20:32;;;;;;;;;;;;;;;;;;5132718;27;19934;-74
2021/08/20 07:22:59;;;;;;;;;;;;;;;;;;5133685;27;19931;-74
2021/08/20 07:25:25;;;;;;;;;;;;;;;;;;5133742;27;20104;-74
2021/08/20 07:27:51;;;;;;;;;;;;;;;;;;5133743;27;19924;-74
2021/08/20 07:30:17;;;;;;;;;;;;;;;;;;5134009;27;19924;-74
2021/08/20 07:32:45;;;;;;;;;;;;;;;;;;5133627;27;19931;-74
2021/08/20 07:35:11;;;;;;;;;;;;;;;;;;5133749;27;19929;-74
2021/08/20 07:37:37;;;;;;;;;;;;;;;;;;5133348;27;19923;-74
2021/08/20 07:40:03;;;;;;;;;;;;;;;;;;5133736;27;19930;-74
2021/08/20 07:42:30;;;;;;;;;;;;;;;;;;5133218;27;19924;-73
2021/08/20 07:44:56;;;;;;;;;;;;;;;;;;5133776;27;19930;-74
2021/08/20 07:47:22;;;;;;;;;;;;;;;;;;5133061;28;20301;-74
2021/08/20 07:49:48;;;;;;;;;;;;;;;;;;5133738;28;19996;-73
2021/08/20 07:52:15;;;;;;;;;;;;;;;;;;5133476;28;19930;-74
2021/08/20 07:54:41;;;;;;;;;;;;;;;;;;5133462;28;19923;-74
2021/08/20 07:57:07;;;;;;;;;;;;;;;;;;5133252;28;20404;-74
2021/08/20 07:59:34;;;;;;;;;;;;;;;;;;5133247;28;19930;-74
2021/08/20 08:02:00;;;;;;;;;;;;;;;;;;5133626;28;19923;-74
2021/08/20 08:04:26;;;;;;;;;;;;;;;;;;5133114;28;19930;-74
2021/08/20 08:06:53;;;;;;;;;;;;;;;;;;5133397;28;19927;-74
2021/08/20 08:09:19;;;;;;;;;;;;;;;;;;5132953;28;20306;-74
2021/08/20 08:11:45;;;;;;;;;;;;;;;;;;5133526;28;19930;-74
2021/08/20 08:14:12;;;;;;;;;;;;;;;;;;5133212;28;20388;-74
2021/08/20 08:16:38;;;;;;;;;;;;;;;;;;5133128;28;19924;-74
2021/08/20 08:19:04;;;;;;;;;;;;;;;;;;5133298;28;19931;-74
2021/08/20 08:21:30;;;;;;;;;;;;;;;;;;5132837;28;19923;-74
2021/08/20 08:23:57;;;;;;;;;;;;;;;;;;5133033;28;20270;-74
2021/08/20 08:26:24;;;;;;;;;;;;;;;;;;5132766;28;19928;-74
2021/08/20 08:28:50;;;;;;;;;;;;;;;;;;5133390;28;19924;-74
2021/08/20 08:31:16;;;;;;;;;;;;;;;;;;5133440;27;19945;-74
2021/08/20 08:33:43;;;;;;;;;;;;;;;;;;5137074;27;19934;-74
2021/08/20 08:36:09;;;;;;;;;;;;;;;;;;5136811;27;19923;-74
2021/08/20 08:38:35;;;;;;;;;;;;;;;;;;5136876;27;19927;-74
2021/08/20 08:41:01;;;;;;;;;;;;;;;;;;5136856;27;19924;-74
2021/08/20 08:43:28;;;;;;;;;;;;;;;;;;5136850;27;19924;-74
2021/08/20 08:45:54;;;;;;;;;;;;;;;;;;5136647;27;19930;-75
2021/08/20 08:48:20;;;;;;;;;;;;;;;;;;5136738;27;19923;-74
2021/08/20 08:50:47;;;;;;;;;;;;;;;;;;5136697;27;19927;-74
2021/08/20 08:53:13;;;;;;;;;;;;;;;;;;5136631;27;19927;-74
2021/08/20 08:55:40;;;;;;;;;;;;;;;;;;5136562;27;19923;-74
2021/08/20 08:58:06;;;;;;;;;;;;;;;;;;5136403;27;19931;-74
2021/08/20 09:00:32;;;;;;;;;;;;;;;;;;5136478;27;19923;-74
2021/08/20 09:02:59;;;;;;;;;;;;;;;;;;5136460;27;19923;-74
2021/08/20 09:05:25;;;;;;;;;;;;;;;;;;5136431;27;19923;-74
2021/08/20 09:07:51;;;;;;;;;;;;;;;;;;5136251;27;19930;-74
2021/08/20 09:10:17;;;;;;;;;;;;;;;;;;5136308;27;19976;-74
2021/08/20 09:12:44;;;;;;;;;;;;;;;;;;5136199;27;19923;-74
2021/08/20 09:15:10;;;;;;;;;;;;;;;;;;5136186;27;19968;-74
2021/08/20 09:17:37;;;;;;;;;;;;;;;;;;5136246;27;19940;-74
2021/08/20 09:20:03;;;;;;;;;;;;;;;;;;5135749;27;19927;-74
2021/08/20 09:22:29;;;;;;;;;;;;;;;;;;5136128;27;19923;-74
2021/08/20 09:24:56;;;;;;;;;;;;;;;;;;5136233;27;19923;-74
2021/08/20 09:27:24;;;;;;;;;;;;;;;;;;5135731;27;20308;-74
2021/08/20 09:29:50;;;;;;;;;;;;;;;;;;5136126;27;19923;-74
2021/08/20 09:32:17;;;;;;;;;;;;;;;;;;5136196;27;19930;-74
2021/08/20 09:34:43;;;;;;;;;;;;;;;;;;5135530;27;19942;-74
2021/08/20 09:37:09;;;;;;;;;;;;;;;;;;5136076;27;19923;-74
2021/08/20 09:39:36;;;;;;;;;;;;;;;;;;5135338;27;19931;-74
2021/08/20 09:42:02;;;;;;;;;;;;;;;;;;5136129;27;19923;-74
2021/08/20 09:44:29;;;;;;;;;;;;;;;;;;5134567;27;19924;-74
2021/08/20 09:46:56;;;;;;;;;;;;;;;;;;5135782;27;20017;-75
2021/08/20 09:49:22;;;;;;;;;;;;;;;;;;5135193;27;19953;-74
2021/08/20 09:51:48;;;;;;;;;;;;;;;;;;5135747;27;19930;-75
2021/08/20 09:54:14;;;;;;;;;;;;;;;;;;5135380;27;19923;-75
2021/08/20 09:56:41;;;;;;;;;;;;;;;;;;5135483;27;19924;-75
2021/08/20 09:59:07;;;;;;;;;;;;;;;;;;5135215;27;20369;-75
2021/08/20 10:01:33;;;;;;;;;;;;;;;;;;5135248;27;19927;-75
2021/08/20 10:04:00;;;;;;;;;;;;;;;;;;5135246;27;19931;-75
2021/08/20 10:06:26;;;;;;;;;;;;;;;;;;5135237;27;19930;-75
2021/08/20 10:08:52;;;;;;;;;;;;;;;;;;5135110;27;19923;-75
2021/08/20 10:11:18;;;;;;;;;;;;;;;;;;5135311;27;19923;-75
2021/08/20 10:13:45;;;;;;;;;;;;;;;;;;5134973;27;19930;-75
2021/08/20 10:16:12;;;;;;;;;;;;;;;;;;5135025;27;20342;-75
2021/08/20 10:18:40;;;;;;;;;;;;;;;;;;5135033;27;20018;-75
2021/08/20 10:21:06;;;;;;;;;;;;;;;;;;5134696;27;20017;-75
2021/08/20 10:23:32;;;;;;;;;;;;;;;;;;5134958;27;19924;-75
2021/08/20 10:25:59;;;;;;;;;;;;;;;;;;5134866;27;19969;-75
2021/08/20 10:28:25;;;;;;;;;;;;;;;;;;5134675;27;19924;-75
2021/08/20 10:30:51;;;;;;;;;;;;;;;;;;5134561;27;19923;-75
2021/08/20 10:33:17;;;;;;;;;;;;;;;;;;5134947;27;19930;-75
2021/08/20 10:35:44;;;;;;;;;;;;;;;;;;5134652;27;19927;-75
2021/08/20 10:38:10;;;;;;;;;;;;;;;;;;5134946;27;19923;-75
2021/08/20 10:40:36;;;;;;;;;;;;;;;;;;5134210;27;19930;-75
2021/08/20 10:43:03;;;;;;;;;;;;;;;;;;5134731;27;19930;-75
2021/08/20 10:45:29;;;;;;;;;;;;;;;;;;5134208;27;20297;-75
2021/08/20 10:47:55;;;;;;;;;;;;;;;;;;5134588;27;19923;-75
2021/08/20 10:50:21;;;;;;;;;;;;;;;;;;5134043;27;20408;-75
2021/08/20 10:52:48;;;;;;;;;;;;;;;;;;5134553;27;19930;-75
2021/08/20 10:55:15;;;;;;;;;;;;;;;;;;5134229;27;20389;-75
2021/08/20 10:57:42;;;;;;;;;;;;;;;;;;5133744;27;20385;-75
2021/08/20 11:00:08;;;;;;;;;;;;;;;;;;5134099;27;20305;-75
2021/08/20 11:02:34;;;;;;;;;;;;;;;;;;5134143;27;19935;-75
2021/08/20 11:05:01;;;;;;;;;;;;;;;;;;5134056;27;20381;-75
2021/08/20 11:07:27;;;;;;;;;;;;;;;;;;5133766;27;19924;-75
2021/08/20 11:09:53;;;;;;;;;;;;;;;;;;5133842;27;20308;-75
2021/08/20 11:12:19;;;;;;;;;;;;;;;;;;5133939;27;19923;-75
2021/08/20 11:14:46;;;;;;;;;;;;;;;;;;5133856;27;19923;-75
2021/08/20 11:17:12;;;;;;;;;;;;;;;;;;5134179;27;19930;-75
2021/08/20 11:19:38;;;;;;;;;;;;;;;;;;5133270;27;19924;-75
2021/08/20 11:22:05;;;;;;;;;;;;;;;;;;5134199;27;19927;-76
2021/08/20 11:24:31;;;;;;;;;;;;;;;;;;5133459;27;20373;-76
2021/08/20 11:26:59;;;;;;;;;;;;;;;;;;5132830;27;20476;-75
2021/08/20 11:29:28;;;;;;;;;;;;;;;;;;5133736;27;19946;-75
2021/08/20 11:31:54;;;;;;;;;;;;;;;;;;5133919;27;20021;-75
2021/08/20 11:34:20;;;;;;;;;;;;;;;;;;5133344;27;20408;-75
2021/08/20 11:36:47;;;;;;;;;;;;;;;;;;5133730;27;19923;-75
2021/08/20 11:39:13;;;;;;;;;;;;;;;;;;5133516;27;20373;-76
2021/08/20 11:41:43;;;;;;;;;;;;;;;;;;5133561;27;19934;-75
2021/08/20 11:44:09;;;;;;;;;;;;;;;;;;5133458;27;19972;-75
2021/08/20 11:46:36;;;;;;;;;;;;;;;;;;5133445;28;19931;-75
2021/08/20 11:49:02;;;;;;;;;;;;;;;;;;5133323;28;19923;-75
2021/08/20 11:51:28;;;;;;;;;;;;;;;;;;5133111;28;20266;-75
2021/08/20 11:53:55;;;;;;;;;;;;;;;;;;5133336;28;19927;-75
2021/08/20 11:56:21;;;;;;;;;;;;;;;;;;5133419;28;20278;-75
2021/08/20 11:58:47;;;;;;;;;;;;;;;;;;5133134;28;19924;-75
2021/08/20 12:01:14;;;;;;;;;;;;;;;;;;5133543;28;19930;-75
2021/08/20 12:03:41;;;;;;;;;;;;;;;;;;5133094;28;19923;-75
2021/08/20 12:06:07;;;;;;;;;;;;;;;;;;5133651;27;19927;-75
2021/08/20 12:08:33;;;;;;;;;;;;;;;;;;5137505;27;19923;-76
2021/08/20 12:11:00;;;;;;;;;;;;;;;;;;5137247;27;19931;-76
2021/08/20 12:13:26;;;;;;;;;;;;;;;;;;5137166;27;20301;-76
2021/08/20 12:15:52;;;;;;;;;;;;;;;;;;5137257;27;19924;-76
2021/08/20 12:18:19;;;;;;;;;;;;;;;;;;5137321;27;20297;-76
2021/08/20 12:20:45;;;;;;;;;;;;;;;;;;5136839;27;19934;-76
2021/08/20 12:23:11;;;;;;;;;;;;;;;;;;5137525;27;19953;-76
2021/08/20 12:25:37;;;;;;;;;;;;;;;;;;5136786;27;19923;-76
2021/08/20 12:28:04;;;;;;;;;;;;;;;;;;5137466;27;20289;-76
2021/08/20 12:30:31;;;;;;;;;;;;;;;;;;5136833;27;19923;-76
2021/08/20 12:32:58;;;;;;;;;;;;;;;;;;5136953;27;19924;-76
2021/08/20 12:35:24;;;;;;;;;;;;;;;;;;5136670;27;19974;-76
2021/08/20 12:37:50;;;;;;;;;;;;;;;;;;5136916;27;20377;-76
2021/08/20 12:40:17;;;;;;;;;;;;;;;;;;5137160;27;19927;-76
2021/08/20 12:42:43;;;;;;;;;;;;;;;;;;5136523;27;19923;-76
2021/08/20 12:45:10;;;;;;;;;;;;;;;;;;5136967;27;19924;-76
2021/08/20 12:47:36;;;;;;;;;;;;;;;;;;5136507;27;20300;-76
2021/08/20 12:50:02;;;;;;;;;;;;;;;;;;5136686;27;19924;-76
2021/08/20 12:52:28;;;;;;;;;;;;;;;;;;5136744;27;19946;-76
2021/08/20 12:54:55;;;;;;;;;;;;;;;;;;5136404;27;19923;-76
2021/08/20 12:57:21;;;;;;;;;;;;;;;;;;5136682;27;20153;-76
2021/08/20 12:59:47;;;;;;;;;;;;;;;;;;5136497;27;19931;-76
2021/08/20 13:02:14;;;;;;;;;;;;;;;;;;5136825;27;19923;-76
2021/08/20 13:04:40;;;;;;;;;;;;;;;;;;5136224;27;19923;-76
2021/08/20 13:07:06;;;;;;;;;;;;;;;;;;5136665;27;19931;-76
2021/08/20 13:09:32;;;;;;;;;;;;;;;;;;5136061;27;19923;-76
2021/08/20 13:11:59;;;;;;;;;;;;;;;;;;5136602;27;19930;-77
2021/08/20 13:14:25;;;;;;;;;;;;;;;;;;5136028;27;19934;-76
2021/08/20 13:16:55;;;;;;;;;;;;;;;;;;5136460;27;19930;-76
2021/08/20 13:19:21;;;;;;;;;;;;;;;;;;5134915;27;19927;-76
2021/08/20 13:21:47;;;;;;;;;;;;;;;;;;5135815;27;20403;-76
2021/08/20 13:24:14;;;;;;;;;;;;;;;;;;5136424;27;19931;-76
2021/08/20 13:26:40;;;;;;;;;;;;;;;;;;5135687;27;19927;-76
2021/08/20 13:29:06;;;;;;;;;;;;;;;;;;5136312;27;19929;-76
2021/08/20 13:31:33;;;;;;;;;;;;;;;;;;5136013;27;19924;-76
2021/08/20 13:33:59;;;;;;;;;;;;;;;;;;5135806;27;19923;-76
2021/08/20 13:36:26;;;;;;;;;;;;;;;;;;5135806;27;19927;-76
2021/08/20 13:38:52;;;;;;;;;;;;;;;;;;5136071;27;19988;-76
2021/08/20 13:41:18;;;;;;;;;;;;;;;;;;5135636;27;19923;-76
2021/08/20 13:43:45;;;;;;;;;;;;;;;;;;5135878;27;19924;-76
2021/08/20 13:46:11;;;;;;;;;;;;;;;;;;5135490;27;19924;-75
2021/08/20 13:48:37;;;;;;;;;;;;;;;;;;5135677;27;19923;-74
2021/08/20 13:51:03;;;;;;;;;;;;;;;;;;5135554;27;19923;-75
2021/08/20 13:53:30;;;;;;;;;;;;;;;;;;5135502;27;19923;-75
2021/08/20 13:55:56;;;;;;;;;;;;;;;;;;5135392;27;19927;-75
2021/08/20 13:58:22;;;;;;;;;;;;;;;;;;5135394;27;19924;-75
2021/08/20 14:00:48;;;;;;;;;;;;;;;;;;5135304;27;19930;-75
2021/08/20 14:03:15;;;;;;;;;;;;;;;;;;5135590;27;19924;-75
2021/08/20 14:05:42;;;;;;;;;;;;;;;;;;5134964;27;19931;-75
2021/08/20 14:08:08;;;;;;;;;;;;;;;;;;5135501;27;19927;-75
2021/08/20 14:10:34;;;;;;;;;;;;;;;;;;5134957;27;19931;-74
2021/08/20 14:13:01;;;;;;;;;;;;;;;;;;5135327;27;19923;-75
2021/08/20 14:15:27;;;;;;;;;;;;;;;;;;5134760;27;19929;-74
2021/08/20 14:17:54;;;;;;;;;;;;;;;;;;5135251;27;19930;-74
2021/08/20 14:20:20;;;;;;;;;;;;;;;;;;5134160;27;20366;-75
2021/08/20 14:22:47;;;;;;;;;;;;;;;;;;5135070;27;19924;-75
2021/08/20 14:25:14;;;;;;;;;;;;;;;;;;5135149;27;19923;-74
2021/08/20 14:27:40;;;;;;;;;;;;;;;;;;5134594;27;20374;-74
2021/08/20 14:30:06;;;;;;;;;;;;;;;;;;5134746;27;19927;-74
2021/08/20 14:32:32;;;;;;;;;;;;;;;;;;5134462;27;19930;-75
2021/08/20 14:34:59;;;;;;;;;;;;;;;;;;5134877;27;19930;-75
2021/08/20 14:37:25;;;;;;;;;;;;;;;;;;5134332;27;20294;-75
2021/08/20 14:39:51;;;;;;;;;;;;;;;;;;5134870;27;19923;-75
2021/08/20 14:42:18;;;;;;;;;;;;;;;;;;5134733;27;19923;-74
2021/08/20 14:44:44;;;;;;;;;;;;;;;;;;5134372;27;19930;-75
2021/08/20 14:47:10;;;;;;;;;;;;;;;;;;5134305;27;19962;-75
2021/08/20 14:49:36;;;;;;;;;;;;;;;;;;5134399;27;19927;-74
2021/08/20 14:52:03;;;;;;;;;;;;;;;;;;5134345;27;19923;-75
2021/08/20 14:54:29;;;;;;;;;;;;;;;;;;5134635;27;19931;-74
2021/08/20 14:56:55;;;;;;;;;;;;;;;;;;5134109;27;19923;-75
2021/08/20 14:59:22;;;;;;;;;;;;;;;;;;5134378;27;19930;-75
2021/08/20 15:01:48;;;;;;;;;;;;;;;;;;5134104;27;19924;-75
2021/08/20 15:04:14;;;;;;;;;;;;;;;;;;5134496;27;19923;-75
2021/08/20 15:06:43;;;;;;;;;;;;;;;;;;5133793;27;19924;-75
2021/08/20 15:09:09;;;;;;;;;;;;;;;;;;5134338;27;20027;-76
2021/08/20 15:11:35;;;;;;;;;;;;;;;;;;5133700;27;19923;-75
2021/08/20 15:14:06;;;;;;;;;;;;;;;;;;5134277;27;19931;-75
2021/08/20 15:16:32;;;;;;;;;;;;;;;;;;5133751;27;19981;-75
2021/08/20 15:18:59;;;;;;;;;;;;;;;;;;5134087;27;19924;-75
2021/08/20 15:21:25;;;;;;;;;;;;;;;;;;5133164;27;19931;-75
2021/08/20 15:23:51;;;;;;;;;;;;;;;;;;5134082;27;19923;-75
2021/08/20 15:26:17;;;;;;;;;;;;;;;;;;5133625;27;19931;-75
2021/08/20 15:28:44;;;;;;;;;;;;;;;;;;5133789;27;19923;-75
2021/08/20 15:31:10;;;;;;;;;;;;;;;;;;5133498;27;19956;-75
2021/08/20 15:33:36;;;;;;;;;;;;;;;;;;5133574;27;19930;-75
2021/08/20 15:36:02;;;;;;;;;;;;;;;;;;5133481;27;19923;-75
2021/08/20 15:38:30;;;;;;;;;;;;;;;;;;5133486;27;19923;-75
2021/08/20 15:40:57;;;;;;;;;;;;;;;;;;5133074;27;19928;-75
2021/08/20 15:43:23;;;;;;;;;;;;;;;;;;5133109;27;19930;-75
2021/08/20 15:45:49;;;;;;;;;;;;;;;;;;5133661;27;19923;-75
2021/08/20 15:48:16;;;;;;;;;;;;;;;;;;5134627;27;19935;-75
2021/08/20 15:50:42;;;;;;;;;;;;;;;;;;5146381;28;19923;-75
2021/08/20 15:53:08;;;;;;;;;;;;;;;;;;5134127;28;19923;-75
2021/08/20 15:55:35;;;;;;;;;;;;;;;;;;5133331;28;19968;-75
2021/08/20 15:58:01;;;;;;;;;;;;;;;;;;5133455;28;19984;-75
2021/08/20 16:00:27;;;;;;;;;;;;;;;;;;5132933;28;19928;-75
2021/08/20 16:02:54;;;;;;;;;;;;;;;;;;5133479;28;19930;-75
2021/08/20 16:05:20;;;;;;;;;;;;;;;;;;5133046;28;19924;-75
2021/08/20 16:07:46;;;;;;;;;;;;;;;;;;5133497;28;19931;-75
2021/08/20 16:10:13;;;;;;;;;;;;;;;;;;5133228;28;19923;-75
2021/08/20 16:12:40;;;;;;;;;;;;;;;;;;5133211;28;20014;-75
2021/08/20 16:15:06;;;;;;;;;;;;;;;;;;5133124;28;19924;-75
2021/08/20 16:17:33;;;;;;;;;;;;;;;;;;5133281;28;19924;-75
2021/08/20 16:19:59;;;;;;;;;;;;;;;;;;5133092;28;19978;-75
2021/08/20 16:22:26;;;;;;;;;;;;;;;;;;5132818;28;20385;-75
2021/08/20 16:24:52;;;;;;;;;;;;;;;;;;5133278;28;19923;-75
2021/08/20 16:27:18;;;;;;;;;;;;;;;;;;5133282;28;19930;-75
2021/08/20 16:29:46;;;;;;;;;;;;;;;;;;5133285;28;19923;-75
2021/08/20 16:32:13;;;;;;;;;;;;;;;;;;5133020;28;19930;-75
2021/08/20 16:34:39;;;;;;;;;;;;;;;;;;5133105;28;20353;-75
2021/08/20 16:37:05;;;;;;;;;;;;;;;;;;5132904;28;19923;-75
2021/08/20 16:39:31;;;;;;;;;;;;;;;;;;5132923;28;19930;-75